createdAt,value
2019-04-14T00:02:03.352Z,4.01
2019-04-14T00:04:40.117Z,4.02
2019-04-14T00:07:12.292Z,3.99
2019-04-14T00:09:45.299Z,3.99
2019-04-14T00:12:17.208Z,3.96
2019-04-14T00:14:49.165Z,3.96
2019-04-14T00:17:21.523Z,3.95
2019-04-14T00:19:54.446Z,3.90
2019-04-14T00:22:28.033Z,3.92
2019-04-14T00:24:59.723Z,3.80
2019-04-14T00:27:32.403Z,3.81
2019-04-14T00:30:05.705Z,3.80
2019-04-14T00:32:46.571Z,3.87
2019-04-14T00:35:47.052Z,3.88
2019-04-14T00:38:32.353Z,3.78
2019-04-14T00:41:13.779Z,3.76
2019-04-14T00:44:03.586Z,3.77
2019-04-14T00:46:58.153Z,3.72
2019-04-14T00:49:29.418Z,3.79
2019-04-14T00:52:01.706Z,3.79
2019-04-14T00:54:33.017Z,3.78
2019-04-14T00:57:05.158Z,3.77
2019-04-14T00:59:37.436Z,3.75
2019-04-14T01:02:09.809Z,3.79
2019-04-14T01:04:40.976Z,3.84
2019-04-14T01:07:13.061Z,3.85
2019-04-14T01:09:44.525Z,3.76
2019-04-14T01:12:17.445Z,3.75
2019-04-14T01:14:49.618Z,3.85
2019-04-14T01:17:22.045Z,3.80
2019-04-14T01:19:53.447Z,3.92
2019-04-14T01:22:25.329Z,3.82
2019-04-14T01:24:57.544Z,3.93
2019-04-14T01:27:29.917Z,3.84
2019-04-14T01:30:02.671Z,3.79
2019-04-14T01:32:35.009Z,3.82
2019-04-14T01:35:07.791Z,3.95
2019-04-14T01:37:39.775Z,3.91
2019-04-14T01:40:12.086Z,3.84
2019-04-14T01:42:44.199Z,3.82
2019-04-14T01:45:18.626Z,3.88
2019-04-14T01:47:51.118Z,3.87
2019-04-14T01:50:30.956Z,3.71
2019-04-14T01:53:11.945Z,3.61
2019-04-14T01:56:12.683Z,3.63
2019-04-14T01:58:51.231Z,3.65
2019-04-14T02:01:30.265Z,3.68
2019-04-14T02:04:02.944Z,3.57
2019-04-14T02:06:35.564Z,3.58
2019-04-14T02:09:12.087Z,3.46
2019-04-14T02:11:44.541Z,3.49
2019-04-14T02:14:16.857Z,3.53
2019-04-14T02:16:55.226Z,3.68
2019-04-14T02:19:24.175Z,3.55
2019-04-14T02:21:56.380Z,3.48
2019-04-14T02:24:28.853Z,3.40
2019-04-14T02:27:01.329Z,3.36
2019-04-14T02:29:34.291Z,3.35
2019-04-14T02:32:33.960Z,3.49
2019-04-14T02:35:13.560Z,3.37
2019-04-14T02:37:43.325Z,3.32
2019-04-14T02:42:52.228Z,3.28
2019-04-14T02:45:32.249Z,3.24
2019-04-14T02:50:24.491Z,3.34
2019-04-14T02:53:07.921Z,3.34
2019-04-14T02:55:34.182Z,3.33
2019-04-14T02:58:16.275Z,3.30
2019-04-14T03:00:58.468Z,3.26
2019-04-14T03:03:16.073Z,3.22
2019-04-14T03:08:25.239Z,3.13
2019-04-14T03:10:55.977Z,3.07
2019-04-14T03:13:29.209Z,3.00
2019-04-14T03:22:23.761Z,2.71
2019-04-14T03:24:47.211Z,2.79
2019-04-14T03:30:58.681Z,2.85
2019-04-14T03:33:52.562Z,2.82
2019-04-14T03:40:58.544Z,2.77
2019-04-14T03:43:38.856Z,2.72
2019-04-14T03:48:54.056Z,2.73
2019-04-14T03:51:10.606Z,2.76
2019-04-14T03:53:54.484Z,2.71
2019-04-14T03:56:24.564Z,2.69
2019-04-14T03:58:57.611Z,2.72
2019-04-14T04:01:30.224Z,2.71
2019-04-14T04:04:03.238Z,2.71
2019-04-14T04:06:38.062Z,2.62
2019-04-14T04:09:12.481Z,2.62
2019-04-14T04:11:45.529Z,2.65
2019-04-14T04:14:18.153Z,2.65
2019-04-14T04:16:57.934Z,2.72
2019-04-14T04:19:49.180Z,2.74
2019-04-14T04:22:39.026Z,2.80
2019-04-14T04:25:20.436Z,2.84
2019-04-14T04:28:10.192Z,2.89
2019-04-14T04:30:51.612Z,2.84
2019-04-14T04:33:43.677Z,2.81
2019-04-14T04:36:39.982Z,2.84
2019-04-14T04:39:19.316Z,2.91
2019-04-14T04:41:51.600Z,2.92
2019-04-14T04:44:26.926Z,2.95
2019-04-14T04:46:59.137Z,3.00
2019-04-14T04:49:31.255Z,2.99
2019-04-14T04:52:04.102Z,3.03
2019-04-14T04:54:36.405Z,3.04
2019-04-14T04:57:08.887Z,3.09
2019-04-14T04:59:40.930Z,3.19
2019-04-14T05:02:13.464Z,3.10
2019-04-14T05:04:46.033Z,3.14
2019-04-14T05:07:18.793Z,3.17
2019-04-14T05:10:08.917Z,3.21
2019-04-14T05:13:05.535Z,3.22
2019-04-14T05:15:48.979Z,3.33
2019-04-14T05:18:24.848Z,3.31
2019-04-14T05:20:55.961Z,3.30
2019-04-14T05:23:27.886Z,3.35
2019-04-14T05:26:00.554Z,3.38
2019-04-14T05:28:33.212Z,3.43
2019-04-14T05:31:05.448Z,3.44
2019-04-14T05:33:38.295Z,3.49
2019-04-14T05:36:10.702Z,3.53
2019-04-14T05:38:42.856Z,3.55
2019-04-14T05:41:15.723Z,3.64
2019-04-14T05:43:53.700Z,3.58
2019-04-14T05:46:21.480Z,3.58
2019-04-14T05:48:53.602Z,3.62
2019-04-14T05:51:26.443Z,3.61
2019-04-14T05:53:59.646Z,3.67
2019-04-14T05:56:32.021Z,3.82
2019-04-14T05:59:05.183Z,3.92
2019-04-14T06:01:37.082Z,3.96
2019-04-14T06:04:09.345Z,3.90
2019-04-14T06:06:41.324Z,3.91
2019-04-14T06:09:16.382Z,3.89
2019-04-14T06:11:48.332Z,3.92
2019-04-14T06:14:20.249Z,4.06
2019-04-14T06:16:51.443Z,4.00
2019-04-14T06:19:23.716Z,4.00
2019-04-14T06:21:55.553Z,4.00
2019-04-14T06:24:27.553Z,4.06
2019-04-14T06:26:59.383Z,4.31
2019-04-14T06:29:31.255Z,4.18
2019-04-14T06:32:21.956Z,4.14
2019-04-14T06:35:16.765Z,4.16
2019-04-14T06:37:58.025Z,4.22
2019-04-14T06:40:32.764Z,4.35
2019-04-14T06:43:06.923Z,4.44
2019-04-14T06:45:38.900Z,4.61
2019-04-14T06:48:10.236Z,4.86
2019-04-14T06:50:46.394Z,4.79
2019-04-14T06:53:18.742Z,5.15
2019-04-14T06:55:57.110Z,5.13
2019-04-14T07:03:00.406Z,5.67
2019-04-14T07:06:01.889Z,5.08
2019-04-14T07:08:59.402Z,5.08
2019-04-14T07:11:43.494Z,5.10
2019-04-14T07:14:57.296Z,5.74
2019-04-14T07:17:29.393Z,5.26
2019-04-14T07:20:02.608Z,5.43
2019-04-14T07:22:34.249Z,6.00
2019-04-14T07:26:00.622Z,5.79
2019-04-14T07:28:40.463Z,5.63
2019-04-14T07:31:36.541Z,5.53
2019-04-14T07:34:36.366Z,5.37
2019-04-14T07:37:20.225Z,5.75
2019-04-14T07:40:05.481Z,5.66
2019-04-14T07:42:46.949Z,6.00
2019-04-14T07:45:33.345Z,5.95
2019-04-14T07:48:20.200Z,5.61
2019-04-14T07:51:11.112Z,5.55
2019-04-14T07:54:04.788Z,5.98
2019-04-14T07:56:55.096Z,5.69
2019-04-14T07:59:51.097Z,5.77
2019-04-14T08:02:40.055Z,5.59
2019-04-14T08:05:15.654Z,5.57
2019-04-14T08:07:47.503Z,5.71
2019-04-14T08:10:19.625Z,5.76
2019-04-14T08:12:51.775Z,5.56
2019-04-14T08:15:23.920Z,6.17
2019-04-14T08:17:55.918Z,6.22
2019-04-14T08:20:28.167Z,6.13
2019-04-14T08:23:00.189Z,6.16
2019-04-14T08:25:32.158Z,6.18
2019-04-14T08:28:04.076Z,6.09
2019-04-14T08:30:36.048Z,6.26
2019-04-14T08:33:07.352Z,5.97
2019-04-14T08:35:38.682Z,6.05
2019-04-14T08:38:09.985Z,6.18
2019-04-14T08:40:41.280Z,6.17
2019-04-14T08:43:47.884Z,6.05
2019-04-14T08:46:36.970Z,6.40
2019-04-14T08:49:35.345Z,6.27
2019-04-14T08:52:29.949Z,6.72
2019-04-14T08:55:20.805Z,6.42
2019-04-14T08:58:06.761Z,6.19
2019-04-14T09:01:10.283Z,6.23
2019-04-14T09:04:18.099Z,6.28
2019-04-14T09:06:54.180Z,6.44
2019-04-14T09:09:28.472Z,6.33
2019-04-14T09:12:15.336Z,6.16
2019-04-14T09:14:39.118Z,6.17
2019-04-14T09:17:10.934Z,6.88
2019-04-14T09:19:43.917Z,6.79
2019-04-14T09:22:15.879Z,6.71
2019-04-14T09:24:47.872Z,6.78
2019-04-14T09:27:19.812Z,6.92
2019-04-14T09:29:52.506Z,7.58
2019-04-14T09:32:24.694Z,6.93
2019-04-14T09:34:56.904Z,7.29
2019-04-14T09:37:28.937Z,7.18
2019-04-14T09:40:10.833Z,7.32
2019-04-14T09:42:59.550Z,7.02
2019-04-14T09:45:43.964Z,7.20
2019-04-14T09:48:52.936Z,7.02
2019-04-14T09:51:43.362Z,6.86
2019-04-14T09:55:04.350Z,6.58
2019-04-14T09:57:42.574Z,6.72
2019-04-14T10:03:44.932Z,6.70
2019-04-14T10:06:22.390Z,7.03
2019-04-14T10:09:32.887Z,7.07
2019-04-14T10:12:11.614Z,6.98
2019-04-14T10:15:24.640Z,7.78
2019-04-14T10:18:04.102Z,7.42
2019-04-14T10:20:37.987Z,7.51
2019-04-14T10:23:10.291Z,7.40
2019-04-14T10:25:43.875Z,7.35
2019-04-14T10:28:16.023Z,7.34
2019-04-14T10:30:48.995Z,6.81
2019-04-14T10:33:21.566Z,6.74
2019-04-14T10:36:01.743Z,6.89
2019-04-14T10:44:21.015Z,6.86
2019-04-14T10:46:07.378Z,7.36
2019-04-14T10:48:40.567Z,7.67
2019-04-14T10:51:32.532Z,7.54
2019-04-14T10:54:03.288Z,7.75
2019-04-14T10:56:36.906Z,8.01
2019-04-14T10:59:14.620Z,8.50
2019-04-14T11:01:48.309Z,8.51
2019-04-14T11:04:19.716Z,8.37
2019-04-14T11:07:03.917Z,9.09
2019-04-14T11:09:36.057Z,8.93
2019-04-14T11:12:07.427Z,9.40
2019-04-14T11:14:39.332Z,9.07
2019-04-14T11:17:10.601Z,9.50
2019-04-14T11:19:42.447Z,9.44
2019-04-14T11:22:14.411Z,9.87
2019-04-14T11:24:45.605Z,10.34
2019-04-14T11:27:19.527Z,9.66
2019-04-14T11:29:53.903Z,9.32
2019-04-14T11:32:49.824Z,9.33
2019-04-14T11:35:27.489Z,9.59
2019-04-14T11:38:17.147Z,9.51
2019-04-14T11:40:50.717Z,9.91
2019-04-14T11:43:21.942Z,9.92
2019-04-14T11:45:56.206Z,9.82
2019-04-14T11:48:28.297Z,9.54
2019-04-14T11:51:00.478Z,9.91
2019-04-14T11:53:33.684Z,10.82
2019-04-14T11:56:08.060Z,11.13
2019-04-14T11:58:40.099Z,10.38
2019-04-14T12:01:24.771Z,10.81
2019-04-14T12:04:02.871Z,10.83
2019-04-14T12:06:56.194Z,10.97
2019-04-14T12:09:36.432Z,10.43
2019-04-14T12:12:09.620Z,10.82
2019-04-14T12:14:40.895Z,11.15
2019-04-14T12:17:12.244Z,10.91
2019-04-14T12:19:44.390Z,11.23
2019-04-14T12:22:16.700Z,11.27
2019-04-14T12:24:49.627Z,12.24
2019-04-14T12:27:21.831Z,11.48
2019-04-14T12:29:54.394Z,12.44
2019-04-14T12:32:26.982Z,12.56
2019-04-14T13:46:43.493Z,12.99
2019-04-14T13:49:15.417Z,13.54
2019-04-14T13:51:47.360Z,12.61
2019-04-14T13:54:20.540Z,12.69
2019-04-14T13:56:52.279Z,12.39
2019-04-14T13:59:25.469Z,12.82
2019-04-14T14:01:57.371Z,12.75
2019-04-14T14:04:32.303Z,12.71
2019-04-14T14:07:15.509Z,12.76
2019-04-14T14:09:56.943Z,13.03
2019-04-14T14:12:40.162Z,12.93
2019-04-14T14:15:39.610Z,13.48
2019-04-14T14:18:40.325Z,13.52
2019-04-14T14:21:39.587Z,13.80
2019-04-14T14:24:33.129Z,14.51
2019-04-14T14:27:16.782Z,14.04
2019-04-14T14:29:44.467Z,13.69
2019-04-14T14:32:35.123Z,14.10
2019-04-14T14:35:06.858Z,13.76
2019-04-14T14:37:38.742Z,14.16
2019-04-14T14:40:10.872Z,13.74
2019-04-14T14:42:42.162Z,13.51
2019-04-14T14:45:34.813Z,13.35
2019-04-14T14:48:25.191Z,13.00
2019-04-14T14:51:02.521Z,12.95
2019-04-14T14:54:14.743Z,13.01
2019-04-14T14:56:48.577Z,13.19
2019-04-14T14:59:20.833Z,13.18
2019-04-14T15:01:52.283Z,13.20
2019-04-14T15:04:24.325Z,13.16
2019-04-14T15:06:55.705Z,13.19
2019-04-14T15:09:26.861Z,13.05
2019-04-14T15:11:58.179Z,13.20
2019-04-14T15:14:29.399Z,13.21
2019-04-14T15:17:01.381Z,13.33
2019-04-14T15:19:32.963Z,13.20
2019-04-14T15:22:04.849Z,13.24
2019-04-14T15:24:37.189Z,13.16
2019-04-14T15:27:08.515Z,13.29
2019-04-14T15:29:40.264Z,13.35
2019-04-14T15:32:12.261Z,13.31
2019-04-14T15:34:43.693Z,13.38
2019-04-14T15:37:14.879Z,13.65
2019-04-14T15:39:47.545Z,13.76
2019-04-14T15:42:19.484Z,13.89
2019-04-14T15:44:51.758Z,13.81
2019-04-14T15:47:22.974Z,14.05
2019-04-14T15:49:55.252Z,13.89
2019-04-14T15:52:28.093Z,14.12
2019-04-14T15:55:00.017Z,13.94
2019-04-14T15:57:53.253Z,13.92
2019-04-14T16:00:45.327Z,13.90
2019-04-14T16:03:34.262Z,13.79
2019-04-14T16:06:38.262Z,13.87
2019-04-14T16:09:32.256Z,13.57
2019-04-14T16:12:22.653Z,13.48
2019-04-14T16:15:11.597Z,13.51
2019-04-14T16:17:51.858Z,13.84
2019-04-14T16:20:26.663Z,14.02
2019-04-14T16:22:57.888Z,13.76
2019-04-14T16:25:54.771Z,13.60
2019-04-14T16:29:02.614Z,13.50
2019-04-14T16:31:49.799Z,13.68
2019-04-14T16:34:24.541Z,13.58
2019-04-14T16:36:58.638Z,13.81
2019-04-14T16:39:29.930Z,13.94
2019-04-14T16:42:01.103Z,13.63
2019-04-14T16:44:32.568Z,13.41
2019-04-14T16:47:04.328Z,13.40
2019-04-14T16:49:36.032Z,13.47
2019-04-14T16:52:26.376Z,13.54
2019-04-14T16:55:19.556Z,13.38
2019-04-14T16:58:08.969Z,13.25
2019-04-14T17:00:43.506Z,13.10
2019-04-14T17:03:15.276Z,12.92
2019-04-14T17:05:47.371Z,12.80
2019-04-14T17:08:20.097Z,12.73
2019-04-14T17:10:51.808Z,12.70
2019-04-14T17:13:25.065Z,12.68
2019-04-14T17:16:15.684Z,12.63
2019-04-14T17:19:01.956Z,12.55
2019-04-14T17:22:06.504Z,12.47
2019-04-14T17:24:55.910Z,12.37
2019-04-14T17:27:46.172Z,12.32
2019-04-14T17:30:28.710Z,12.32
2019-04-14T17:33:13.367Z,12.25
2019-04-14T17:36:23.665Z,12.21
2019-04-14T17:39:17.982Z,12.09
2019-04-14T17:42:00.779Z,12.06
2019-04-14T17:44:47.579Z,12.01
2019-04-14T17:47:44.930Z,11.96
2019-04-14T17:50:40.496Z,11.89
2019-04-14T17:53:38.917Z,11.82
2019-04-14T17:56:30.820Z,11.75
2019-04-14T17:59:34.074Z,11.68
2019-04-14T18:02:16.223Z,11.59
2019-04-14T18:05:12.607Z,11.50
2019-04-14T18:08:08.726Z,11.40
2019-04-14T18:10:58.674Z,11.32
2019-04-14T18:13:47.959Z,11.20
2019-04-14T18:16:35.413Z,11.08
2019-04-14T18:19:19.609Z,10.92
2019-04-14T18:21:51.729Z,10.98
2019-04-14T18:24:23.968Z,10.86
2019-04-14T18:26:56.063Z,10.79
2019-04-14T18:29:49.726Z,10.68
2019-04-14T18:32:46.346Z,10.56
2019-04-14T18:35:30.911Z,10.44
2019-04-14T18:38:29.487Z,9.95
2019-04-14T18:41:21.355Z,10.17
2019-04-14T18:44:14.901Z,10.21
2019-04-14T18:46:59.828Z,10.21
2019-04-14T18:49:49.446Z,10.12
2019-04-14T18:52:45.475Z,10.09
2019-04-14T18:55:28.583Z,10.01
2019-04-14T18:58:27.798Z,9.83
2019-04-14T19:01:19.294Z,9.86
2019-04-14T19:03:51.577Z,9.73
2019-04-14T19:06:23.857Z,9.63
2019-04-14T19:08:55.956Z,9.63
2019-04-14T19:11:53.356Z,9.63
2019-04-14T19:14:29.271Z,9.57
2019-04-14T19:17:07.298Z,9.35
2019-04-14T19:19:40.430Z,9.20
2019-04-14T19:22:13.225Z,9.16
2019-04-14T19:24:44.452Z,9.03
2019-04-14T19:27:15.636Z,8.96
2019-04-14T19:29:46.949Z,8.87
2019-04-14T19:32:18.781Z,8.89
2019-04-14T19:34:50.698Z,8.86
2019-04-14T19:37:22.720Z,8.90
2019-04-14T19:39:54.041Z,8.89
2019-04-14T19:42:25.382Z,8.93
2019-04-14T19:44:57.217Z,8.74
2019-04-14T19:47:28.483Z,8.67
2019-04-14T19:50:00.391Z,8.62
2019-04-14T19:52:32.299Z,8.62
2019-04-14T19:55:05.270Z,8.50
2019-04-14T19:57:37.691Z,8.45
2019-04-14T20:00:11.139Z,8.28
2019-04-14T20:02:43.033Z,8.37
2019-04-14T20:05:15.286Z,8.26
2019-04-14T20:07:47.179Z,8.20
2019-04-14T20:10:18.606Z,8.09
2019-04-14T20:12:50.446Z,7.84
2019-04-14T20:15:31.822Z,7.80
2019-04-14T20:18:17.019Z,7.86
2019-04-14T20:21:05.945Z,7.71
2019-04-14T20:23:45.857Z,7.71
2019-04-14T20:26:39.870Z,7.65
2019-04-14T20:29:17.475Z,7.64
2019-04-14T20:31:55.133Z,7.42
2019-04-14T20:34:28.126Z,7.40
2019-04-14T20:37:00.096Z,7.51
2019-04-14T20:39:32.531Z,7.44
2019-04-14T20:42:05.458Z,7.44
2019-04-14T20:44:36.885Z,7.44
2019-04-14T20:47:09.595Z,7.41
2019-04-14T20:49:40.816Z,7.45
2019-04-14T20:52:12.020Z,7.38
2019-04-14T20:54:43.934Z,7.15
2019-04-14T20:57:15.835Z,7.19
2019-04-14T20:59:47.056Z,7.12
2019-04-14T21:02:46.654Z,7.02
2019-04-14T21:05:39.734Z,7.10
2019-04-14T21:08:43.647Z,6.92
2019-04-14T21:11:25.228Z,6.97
2019-04-14T21:14:18.142Z,6.96
2019-04-14T21:17:08.204Z,6.98
2019-04-14T21:19:53.930Z,6.89
2019-04-14T21:22:34.362Z,7.14
2019-04-14T21:25:37.431Z,7.21
2019-04-14T21:28:21.963Z,7.20
2019-04-14T21:31:15.580Z,7.20
2019-04-14T21:33:59.999Z,7.20
2019-04-14T21:37:08.583Z,7.00
2019-04-14T21:39:54.101Z,7.04
2019-04-14T21:42:25.386Z,6.92
2019-04-14T21:44:58.684Z,6.87
2019-04-14T21:47:30.629Z,6.85
2019-04-14T21:50:02.613Z,7.10
2019-04-14T21:52:40.300Z,7.09
2019-04-14T21:55:12.858Z,7.15
2019-04-14T21:57:52.217Z,7.09
2019-04-14T22:01:40.619Z,7.16
2019-04-14T22:04:23.555Z,7.18
2019-04-14T22:06:56.335Z,7.20
2019-04-14T22:09:32.796Z,7.29
2019-04-14T22:12:06.424Z,7.25
2019-04-14T22:14:37.673Z,7.20
2019-04-14T22:17:09.506Z,7.32
2019-04-14T22:19:41.340Z,7.19
2019-04-14T22:22:13.264Z,7.22
2019-04-14T22:24:45.334Z,7.14
2019-04-14T22:27:17.299Z,7.11
2019-04-14T22:29:48.488Z,7.18
2019-04-14T22:32:20.289Z,7.29
2019-04-14T22:34:52.239Z,7.11
2019-04-14T22:37:24.185Z,7.12
2019-04-14T22:39:56.116Z,7.19
2019-04-14T22:42:27.990Z,7.09
2019-04-14T22:44:59.169Z,7.06
2019-04-14T22:47:31.002Z,6.87
2019-04-14T22:50:02.865Z,6.68
2019-04-14T22:52:34.716Z,6.77
2019-04-14T22:55:07.494Z,6.71
2019-04-14T22:57:39.403Z,6.63
2019-04-14T23:00:15.065Z,6.61
2019-04-14T23:03:00.657Z,6.67
2019-04-14T23:05:50.176Z,6.57
2019-04-14T23:08:34.965Z,6.46
2019-04-14T23:11:24.177Z,6.39
2019-04-14T23:14:13.651Z,6.46
2019-04-14T23:17:03.104Z,6.46
2019-04-14T23:19:40.314Z,6.50
2019-04-14T23:22:22.761Z,6.39
2019-04-14T23:24:54.663Z,6.35
2019-04-14T23:27:26.526Z,6.22
2019-04-14T23:29:58.385Z,6.28
2019-04-14T23:32:30.307Z,6.21
2019-04-14T23:35:02.115Z,6.01
2019-04-14T23:37:33.959Z,6.11
2019-04-14T23:40:06.441Z,6.17
2019-04-14T23:42:38.270Z,6.21
2019-04-14T23:45:10.465Z,6.03
2019-04-14T23:47:41.614Z,6.06
2019-04-14T23:50:13.613Z,5.98
2019-04-14T23:52:45.396Z,5.86
2019-04-14T23:55:16.592Z,5.64
2019-04-14T23:57:48.515Z,5.68
